sensor_id;sensor_type;location;lat;lon;timestamp;P1;durP1;ratioP1;P2;durP2;ratioP2
53036;SDS011;38924;52.134;4.666;2023-10-09T00:01:28;38.17;;;23.20;;
53036;SDS011;38924;52.134;4.666;2023-10-09T00:03:57;42.40;;;24.27;;
53036;SDS011;38924;52.134;4.666;2023-10-09T00:06:26;38.47;;;25.17;;
53036;SDS011;38924;52.134;4.666;2023-10-09T00:09:05;43.65;;;24.15;;
53036;SDS011;38924;52.134;4.666;2023-10-09T00:11:38;34.20;;;22.17;;
53036;SDS011;38924;52.134;4.666;2023-10-09T00:14:10;35.35;;;23.25;;
53036;SDS011;38924;52.134;4.666;2023-10-09T00:16:36;34.88;;;22.08;;
53036;SDS011;38924;52.134;4.666;2023-10-09T00:19:08;33.58;;;22.42;;
53036;SDS011;38924;52.134;4.666;2023-10-09T00:21:46;35.10;;;21.75;;
53036;SDS011;38924;52.134;4.666;2023-10-09T00:24:12;31.27;;;20.83;;
53036;SDS011;38924;52.134;4.666;2023-10-09T00:26:51;31.42;;;21.48;;
53036;SDS011;38924;52.134;4.666;2023-10-09T00:29:17;26.85;;;20.90;;
53036;SDS011;38924;52.134;4.666;2023-10-09T00:31:51;39.25;;;22.23;;
53036;SDS011;38924;52.134;4.666;2023-10-09T00:34:41;31.55;;;21.48;;
53036;SDS011;38924;52.134;4.666;2023-10-09T00:37:07;27.10;;;20.20;;
53036;SDS011;38924;52.134;4.666;2023-10-09T00:39:44;31.58;;;20.23;;
53036;SDS011;38924;52.134;4.666;2023-10-09T00:42:13;37.17;;;21.17;;
53036;SDS011;38924;52.134;4.666;2023-10-09T00:44:53;29.73;;;18.67;;
53036;SDS011;38924;52.134;4.666;2023-10-09T00:47:19;32.10;;;19.02;;
53036;SDS011;38924;52.134;4.666;2023-10-09T00:50:02;31.40;;;18.98;;
53036;SDS011;38924;52.134;4.666;2023-10-09T00:52:40;30.73;;;18.92;;
53036;SDS011;38924;52.134;4.666;2023-10-09T00:55:14;28.75;;;17.63;;
53036;SDS011;38924;52.134;4.666;2023-10-09T00:57:46;31.90;;;15.98;;
53036;SDS011;38924;52.134;4.666;2023-10-09T01:00:16;30.38;;;18.05;;
53036;SDS011;38924;52.134;4.666;2023-10-09T01:03:06;26.88;;;17.33;;
53036;SDS011;38924;52.134;4.666;2023-10-09T01:05:38;24.10;;;17.92;;
53036;SDS011;38924;52.134;4.666;2023-10-09T01:08:11;24.33;;;16.98;;
53036;SDS011;38924;52.134;4.666;2023-10-09T01:10:49;21.52;;;14.52;;
53036;SDS011;38924;52.134;4.666;2023-10-09T01:13:27;29.30;;;15.82;;
53036;SDS011;38924;52.134;4.666;2023-10-09T01:16:08;21.77;;;15.23;;
53036;SDS011;38924;52.134;4.666;2023-10-09T01:18:45;31.95;;;17.00;;
53036;SDS011;38924;52.134;4.666;2023-10-09T01:21:12;25.27;;;15.40;;
53036;SDS011;38924;52.134;4.666;2023-10-09T01:23:46;22.58;;;14.10;;
53036;SDS011;38924;52.134;4.666;2023-10-09T01:26:35;23.42;;;15.55;;
53036;SDS011;38924;52.134;4.666;2023-10-09T01:29:11;30.42;;;16.00;;
53036;SDS011;38924;52.134;4.666;2023-10-09T01:31:47;30.52;;;15.75;;
53036;SDS011;38924;52.134;4.666;2023-10-09T01:34:25;23.35;;;15.02;;
53036;SDS011;38924;52.134;4.666;2023-10-09T01:37:04;23.60;;;15.73;;
53036;SDS011;38924;52.134;4.666;2023-10-09T01:39:40;24.60;;;15.88;;
53036;SDS011;38924;52.134;4.666;2023-10-09T01:42:08;23.40;;;15.52;;
53036;SDS011;38924;52.134;4.666;2023-10-09T01:44:35;23.30;;;16.70;;
53036;SDS011;38924;52.134;4.666;2023-10-09T01:47:04;24.50;;;15.10;;
53036;SDS011;38924;52.134;4.666;2023-10-09T01:49:33;20.75;;;15.18;;
53036;SDS011;38924;52.134;4.666;2023-10-09T01:52:02;19.92;;;14.13;;
53036;SDS011;38924;52.134;4.666;2023-10-09T01:54:41;21.90;;;14.50;;
53036;SDS011;38924;52.134;4.666;2023-10-09T01:57:12;29.02;;;14.02;;
53036;SDS011;38924;52.134;4.666;2023-10-09T01:59:42;20.85;;;13.35;;
53036;SDS011;38924;52.134;4.666;2023-10-09T02:02:14;21.13;;;13.30;;
53036;SDS011;38924;52.134;4.666;2023-10-09T02:05:05;27.48;;;13.85;;
53036;SDS011;38924;52.134;4.666;2023-10-09T02:07:34;24.77;;;13.52;;
53036;SDS011;38924;52.134;4.666;2023-10-09T02:10:08;26.63;;;14.18;;
53036;SDS011;38924;52.134;4.666;2023-10-09T02:12:50;20.85;;;12.77;;
53036;SDS011;38924;52.134;4.666;2023-10-09T02:15:19;23.75;;;12.43;;
53036;SDS011;38924;52.134;4.666;2023-10-09T02:18:05;27.70;;;13.35;;
53036;SDS011;38924;52.134;4.666;2023-10-09T02:20:43;21.85;;;11.50;;
53036;SDS011;38924;52.134;4.666;2023-10-09T02:23:10;17.20;;;11.25;;
53036;SDS011;38924;52.134;4.666;2023-10-09T02:25:41;23.17;;;12.77;;
53036;SDS011;38924;52.134;4.666;2023-10-09T02:28:11;18.77;;;11.27;;
53036;SDS011;38924;52.134;4.666;2023-10-09T02:33:15;20.92;;;11.50;;
53036;SDS011;38924;52.134;4.666;2023-10-09T02:35:46;17.20;;;10.10;;
53036;SDS011;38924;52.134;4.666;2023-10-09T02:38:17;26.85;;;11.32;;
53036;SDS011;38924;52.134;4.666;2023-10-09T02:40:43;17.38;;;10.93;;
53036;SDS011;38924;52.134;4.666;2023-10-09T02:43:28;19.02;;;11.60;;
53036;SDS011;38924;52.134;4.666;2023-10-09T02:45:53;18.40;;;11.82;;
53036;SDS011;38924;52.134;4.666;2023-10-09T02:48:19;25.00;;;12.60;;
53036;SDS011;38924;52.134;4.666;2023-10-09T02:50:51;21.90;;;10.38;;
53036;SDS011;38924;52.134;4.666;2023-10-09T02:53:17;19.45;;;10.13;;
53036;SDS011;38924;52.134;4.666;2023-10-09T02:55:54;21.55;;;10.25;;
53036;SDS011;38924;52.134;4.666;2023-10-09T02:58:39;20.67;;;12.13;;
53036;SDS011;38924;52.134;4.666;2023-10-09T03:01:09;17.63;;;10.93;;
53036;SDS011;38924;52.134;4.666;2023-10-09T03:03:35;22.40;;;10.85;;
53036;SDS011;38924;52.134;4.666;2023-10-09T03:06:01;22.08;;;10.48;;
53036;SDS011;38924;52.134;4.666;2023-10-09T03:08:29;19.23;;;11.07;;
53036;SDS011;38924;52.134;4.666;2023-10-09T03:10:55;20.40;;;10.52;;
53036;SDS011;38924;52.134;4.666;2023-10-09T03:13:25;16.52;;;10.05;;
53036;SDS011;38924;52.134;4.666;2023-10-09T03:15:50;17.65;;;10.18;;
53036;SDS011;38924;52.134;4.666;2023-10-09T03:18:17;20.15;;;11.23;;
53036;SDS011;38924;52.134;4.666;2023-10-09T03:20:49;17.77;;;10.15;;
53036;SDS011;38924;52.134;4.666;2023-10-09T03:23:15;14.90;;;10.57;;
53036;SDS011;38924;52.134;4.666;2023-10-09T03:25:41;23.65;;;11.75;;
53036;SDS011;38924;52.134;4.666;2023-10-09T03:28:11;17.23;;;11.45;;
53036;SDS011;38924;52.134;4.666;2023-10-09T03:30:37;30.33;;;13.02;;
53036;SDS011;38924;52.134;4.666;2023-10-09T03:33:05;23.77;;;10.95;;
53036;SDS011;38924;52.134;4.666;2023-10-09T03:35:32;14.95;;;11.57;;
53036;SDS011;38924;52.134;4.666;2023-10-09T03:38:00;17.92;;;11.02;;
53036;SDS011;38924;52.134;4.666;2023-10-09T03:40:30;20.63;;;10.52;;
53036;SDS011;38924;52.134;4.666;2023-10-09T03:42:57;19.13;;;11.13;;
53036;SDS011;38924;52.134;4.666;2023-10-09T03:45:23;17.92;;;9.93;;
53036;SDS011;38924;52.134;4.666;2023-10-09T03:47:59;16.50;;;9.85;;
53036;SDS011;38924;52.134;4.666;2023-10-09T03:50:34;21.40;;;10.25;;
53036;SDS011;38924;52.134;4.666;2023-10-09T03:53:04;21.10;;;9.88;;
53036;SDS011;38924;52.134;4.666;2023-10-09T03:55:32;17.67;;;10.50;;
53036;SDS011;38924;52.134;4.666;2023-10-09T03:58:00;16.33;;;9.55;;
53036;SDS011;38924;52.134;4.666;2023-10-09T04:00:28;19.02;;;10.10;;
53036;SDS011;38924;52.134;4.666;2023-10-09T04:02:55;16.80;;;11.00;;
53036;SDS011;38924;52.134;4.666;2023-10-09T04:05:24;16.30;;;10.05;;
53036;SDS011;38924;52.134;4.666;2023-10-09T04:07:50;23.13;;;11.57;;
53036;SDS011;38924;52.134;4.666;2023-10-09T04:10:18;16.70;;;10.63;;
53036;SDS011;38924;52.134;4.666;2023-10-09T04:13:03;14.10;;;9.93;;
53036;SDS011;38924;52.134;4.666;2023-10-09T04:15:29;17.77;;;10.30;;
53036;SDS011;38924;52.134;4.666;2023-10-09T04:17:56;13.65;;;10.85;;
53036;SDS011;38924;52.134;4.666;2023-10-09T04:20:22;20.83;;;11.77;;
53036;SDS011;38924;52.134;4.666;2023-10-09T04:22:48;14.38;;;9.45;;
53036;SDS011;38924;52.134;4.666;2023-10-09T04:25:17;18.58;;;10.35;;
53036;SDS011;38924;52.134;4.666;2023-10-09T04:27:57;17.73;;;11.98;;
53036;SDS011;38924;52.134;4.666;2023-10-09T04:30:40;20.17;;;11.57;;
53036;SDS011;38924;52.134;4.666;2023-10-09T04:33:08;15.85;;;10.32;;
53036;SDS011;38924;52.134;4.666;2023-10-09T04:35:53;16.15;;;10.43;;
53036;SDS011;38924;52.134;4.666;2023-10-09T04:38:38;28.67;;;11.40;;
53036;SDS011;38924;52.134;4.666;2023-10-09T04:41:07;19.13;;;11.68;;
53036;SDS011;38924;52.134;4.666;2023-10-09T04:43:34;16.48;;;12.00;;
53036;SDS011;38924;52.134;4.666;2023-10-09T04:46:00;22.17;;;12.20;;
53036;SDS011;38924;52.134;4.666;2023-10-09T04:48:33;19.23;;;11.80;;
53036;SDS011;38924;52.134;4.666;2023-10-09T04:51:03;20.02;;;11.45;;
53036;SDS011;38924;52.134;4.666;2023-10-09T04:53:51;25.13;;;13.32;;
53036;SDS011;38924;52.134;4.666;2023-10-09T04:56:25;18.13;;;11.93;;
53036;SDS011;38924;52.134;4.666;2023-10-09T04:58:57;20.15;;;11.13;;
53036;SDS011;38924;52.134;4.666;2023-10-09T05:01:29;19.20;;;10.45;;
53036;SDS011;38924;52.134;4.666;2023-10-09T05:04:23;19.05;;;10.73;;
53036;SDS011;38924;52.134;4.666;2023-10-09T05:07:00;19.30;;;10.82;;
53036;SDS011;38924;52.134;4.666;2023-10-09T05:09:40;20.35;;;10.00;;
53036;SDS011;38924;52.134;4.666;2023-10-09T05:12:21;18.85;;;11.27;;
53036;SDS011;38924;52.134;4.666;2023-10-09T05:14:52;16.52;;;10.32;;
53036;SDS011;38924;52.134;4.666;2023-10-09T05:17:38;16.65;;;9.73;;
53036;SDS011;38924;52.134;4.666;2023-10-09T05:20:04;15.35;;;9.10;;
53036;SDS011;38924;52.134;4.666;2023-10-09T05:25:26;14.90;;;8.43;;
53036;SDS011;38924;52.134;4.666;2023-10-09T05:28:13;17.27;;;10.27;;
53036;SDS011;38924;52.134;4.666;2023-10-09T05:30:57;28.17;;;10.70;;
53036;SDS011;38924;52.134;4.666;2023-10-09T05:33:35;17.77;;;10.30;;
53036;SDS011;38924;52.134;4.666;2023-10-09T05:36:03;20.90;;;10.10;;
53036;SDS011;38924;52.134;4.666;2023-10-09T05:38:56;27.95;;;10.45;;
53036;SDS011;38924;52.134;4.666;2023-10-09T05:41:42;17.27;;;9.65;;
53036;SDS011;38924;52.134;4.666;2023-10-09T05:44:17;17.70;;;9.68;;
53036;SDS011;38924;52.134;4.666;2023-10-09T05:49:46;22.45;;;9.77;;
53036;SDS011;38924;52.134;4.666;2023-10-09T05:52:12;18.15;;;9.43;;
53036;SDS011;38924;52.134;4.666;2023-10-09T05:57:41;15.32;;;10.13;;
53036;SDS011;38924;52.134;4.666;2023-10-09T06:00:25;24.40;;;10.38;;
53036;SDS011;38924;52.134;4.666;2023-10-09T06:03:10;22.58;;;11.02;;
53036;SDS011;38924;52.134;4.666;2023-10-09T06:05:45;17.05;;;9.70;;
53036;SDS011;38924;52.134;4.666;2023-10-09T06:08:28;21.02;;;10.15;;
53036;SDS011;38924;52.134;4.666;2023-10-09T06:11:13;22.42;;;9.52;;
53036;SDS011;38924;52.134;4.666;2023-10-09T06:13:58;23.33;;;11.30;;
53036;SDS011;38924;52.134;4.666;2023-10-09T06:16:47;24.27;;;9.73;;
53036;SDS011;38924;52.134;4.666;2023-10-09T06:19:22;25.67;;;10.40;;
53036;SDS011;38924;52.134;4.666;2023-10-09T06:21:48;25.10;;;10.82;;
53036;SDS011;38924;52.134;4.666;2023-10-09T06:24:20;21.98;;;10.52;;
53036;SDS011;38924;52.134;4.666;2023-10-09T06:26:51;15.55;;;10.70;;
53036;SDS011;38924;52.134;4.666;2023-10-09T06:29:41;26.17;;;11.05;;
53036;SDS011;38924;52.134;4.666;2023-10-09T06:32:10;20.55;;;10.65;;
53036;SDS011;38924;52.134;4.666;2023-10-09T06:35:02;21.05;;;12.45;;
53036;SDS011;38924;52.134;4.666;2023-10-09T06:37:45;18.75;;;11.02;;
53036;SDS011;38924;52.134;4.666;2023-10-09T06:40:29;18.80;;;11.10;;
53036;SDS011;38924;52.134;4.666;2023-10-09T06:43:16;21.92;;;11.23;;
53036;SDS011;38924;52.134;4.666;2023-10-09T06:45:51;36.10;;;11.60;;
53036;SDS011;38924;52.134;4.666;2023-10-09T06:48:21;25.98;;;11.65;;
53036;SDS011;38924;52.134;4.666;2023-10-09T06:51:02;23.10;;;10.55;;
53036;SDS011;38924;52.134;4.666;2023-10-09T06:53:46;21.30;;;10.73;;
53036;SDS011;38924;52.134;4.666;2023-10-09T06:56:24;24.45;;;10.90;;
53036;SDS011;38924;52.134;4.666;2023-10-09T06:59:16;21.42;;;10.57;;
53036;SDS011;38924;52.134;4.666;2023-10-09T07:01:48;28.48;;;9.65;;
53036;SDS011;38924;52.134;4.666;2023-10-09T07:04:33;17.60;;;10.68;;
53036;SDS011;38924;52.134;4.666;2023-10-09T07:07:02;18.38;;;9.65;;
53036;SDS011;38924;52.134;4.666;2023-10-09T07:09:33;19.83;;;9.82;;
53036;SDS011;38924;52.134;4.666;2023-10-09T07:12:17;18.00;;;10.55;;
53036;SDS011;38924;52.134;4.666;2023-10-09T07:14:52;22.05;;;10.73;;
53036;SDS011;38924;52.134;4.666;2023-10-09T07:17:36;16.08;;;9.52;;
53036;SDS011;38924;52.134;4.666;2023-10-09T07:20:01;20.13;;;9.63;;
53036;SDS011;38924;52.134;4.666;2023-10-09T07:22:40;19.40;;;11.43;;
53036;SDS011;38924;52.134;4.666;2023-10-09T07:25:21;15.90;;;11.02;;
53036;SDS011;38924;52.134;4.666;2023-10-09T07:28:05;21.27;;;11.02;;
53036;SDS011;38924;52.134;4.666;2023-10-09T07:30:44;19.17;;;10.43;;
53036;SDS011;38924;52.134;4.666;2023-10-09T07:33:11;16.90;;;11.75;;
53036;SDS011;38924;52.134;4.666;2023-10-09T07:35:43;21.45;;;11.18;;
53036;SDS011;38924;52.134;4.666;2023-10-09T07:38:14;15.65;;;10.52;;
53036;SDS011;38924;52.134;4.666;2023-10-09T07:40:48;21.25;;;12.65;;
53036;SDS011;38924;52.134;4.666;2023-10-09T07:43:33;18.10;;;12.50;;
53036;SDS011;38924;52.134;4.666;2023-10-09T07:46:05;23.98;;;11.93;;
53036;SDS011;38924;52.134;4.666;2023-10-09T07:48:33;27.10;;;13.23;;
53036;SDS011;38924;52.134;4.666;2023-10-09T07:51:14;17.55;;;11.32;;
53036;SDS011;38924;52.134;4.666;2023-10-09T07:53:40;17.95;;;11.55;;
53036;SDS011;38924;52.134;4.666;2023-10-09T07:56:12;17.63;;;11.43;;
53036;SDS011;38924;52.134;4.666;2023-10-09T07:58:46;19.58;;;12.38;;
53036;SDS011;38924;52.134;4.666;2023-10-09T08:01:13;22.17;;;12.60;;
53036;SDS011;38924;52.134;4.666;2023-10-09T08:03:48;20.63;;;12.18;;
53036;SDS011;38924;52.134;4.666;2023-10-09T08:06:25;18.80;;;10.80;;
53036;SDS011;38924;52.134;4.666;2023-10-09T08:09:10;16.60;;;10.13;;
53036;SDS011;38924;52.134;4.666;2023-10-09T08:11:39;19.77;;;12.07;;
53036;SDS011;38924;52.134;4.666;2023-10-09T08:14:08;25.48;;;11.65;;
53036;SDS011;38924;52.134;4.666;2023-10-09T08:16:53;15.23;;;10.48;;
53036;SDS011;38924;52.134;4.666;2023-10-09T08:19:37;25.17;;;11.95;;
53036;SDS011;38924;52.134;4.666;2023-10-09T08:22:24;22.90;;;11.73;;
53036;SDS011;38924;52.134;4.666;2023-10-09T08:24:50;19.65;;;12.30;;
53036;SDS011;38924;52.134;4.666;2023-10-09T08:27:22;25.55;;;13.10;;
53036;SDS011;38924;52.134;4.666;2023-10-09T08:29:58;19.83;;;11.88;;
53036;SDS011;38924;52.134;4.666;2023-10-09T08:32:42;20.02;;;12.70;;
53036;SDS011;38924;52.134;4.666;2023-10-09T08:35:09;20.40;;;14.48;;
53036;SDS011;38924;52.134;4.666;2023-10-09T08:40:19;21.55;;;11.52;;
53036;SDS011;38924;52.134;4.666;2023-10-09T08:42:48;20.23;;;11.70;;
53036;SDS011;38924;52.134;4.666;2023-10-09T08:45:19;22.70;;;16.40;;
53036;SDS011;38924;52.134;4.666;2023-10-09T08:47:52;18.45;;;13.30;;
53036;SDS011;38924;52.134;4.666;2023-10-09T08:50:20;23.67;;;18.35;;
53036;SDS011;38924;52.134;4.666;2023-10-09T08:52:47;21.77;;;15.20;;
53036;SDS011;38924;52.134;4.666;2023-10-09T08:55:14;18.83;;;16.42;;
53036;SDS011;38924;52.134;4.666;2023-10-09T08:57:45;20.27;;;18.15;;
53036;SDS011;38924;52.134;4.666;2023-10-09T09:00:18;23.92;;;14.95;;
53036;SDS011;38924;52.134;4.666;2023-10-09T09:02:52;18.83;;;14.13;;
53036;SDS011;38924;52.134;4.666;2023-10-09T09:05:21;24.17;;;15.45;;
53036;SDS011;38924;52.134;4.666;2023-10-09T09:07:47;20.85;;;15.57;;
53036;SDS011;38924;52.134;4.666;2023-10-09T09:10:15;25.65;;;18.98;;
53036;SDS011;38924;52.134;4.666;2023-10-09T09:12:47;26.20;;;15.00;;
53036;SDS011;38924;52.134;4.666;2023-10-09T09:15:17;23.45;;;12.98;;
53036;SDS011;38924;52.134;4.666;2023-10-09T09:17:47;18.67;;;12.93;;
53036;SDS011;38924;52.134;4.666;2023-10-09T09:20:22;18.42;;;14.75;;
53036;SDS011;38924;52.134;4.666;2023-10-09T09:22:52;20.02;;;15.20;;
53036;SDS011;38924;52.134;4.666;2023-10-09T09:25:18;17.75;;;14.38;;
53036;SDS011;38924;52.134;4.666;2023-10-09T09:27:49;17.83;;;14.05;;
53036;SDS011;38924;52.134;4.666;2023-10-09T09:30:26;18.98;;;15.45;;
53036;SDS011;38924;52.134;4.666;2023-10-09T09:33:00;18.38;;;15.98;;
53036;SDS011;38924;52.134;4.666;2023-10-09T09:36:00;19.80;;;13.98;;
53036;SDS011;38924;52.134;4.666;2023-10-09T09:38:30;19.05;;;12.90;;
53036;SDS011;38924;52.134;4.666;2023-10-09T09:41:15;19.38;;;15.82;;
53036;SDS011;38924;52.134;4.666;2023-10-09T09:43:51;23.80;;;16.60;;
53036;SDS011;38924;52.134;4.666;2023-10-09T09:46:18;17.58;;;13.93;;
53036;SDS011;38924;52.134;4.666;2023-10-09T09:48:44;21.27;;;17.67;;
53036;SDS011;38924;52.134;4.666;2023-10-09T09:51:13;20.65;;;15.68;;
53036;SDS011;38924;52.134;4.666;2023-10-09T09:53:43;23.60;;;15.75;;
53036;SDS011;38924;52.134;4.666;2023-10-09T09:56:15;18.88;;;15.00;;
53036;SDS011;38924;52.134;4.666;2023-10-09T09:58:44;19.30;;;13.30;;
53036;SDS011;38924;52.134;4.666;2023-10-09T10:01:12;25.85;;;16.35;;
53036;SDS011;38924;52.134;4.666;2023-10-09T10:03:44;19.15;;;14.75;;
53036;SDS011;38924;52.134;4.666;2023-10-09T10:06:11;20.40;;;16.15;;
53036;SDS011;38924;52.134;4.666;2023-10-09T10:08:38;26.95;;;19.58;;
53036;SDS011;38924;52.134;4.666;2023-10-09T10:11:07;19.60;;;14.43;;
53036;SDS011;38924;52.134;4.666;2023-10-09T10:16:11;21.92;;;15.55;;
53036;SDS011;38924;52.134;4.666;2023-10-09T10:18:54;18.98;;;15.15;;
53036;SDS011;38924;52.134;4.666;2023-10-09T10:21:33;26.95;;;14.65;;
53036;SDS011;38924;52.134;4.666;2023-10-09T10:24:04;20.40;;;11.30;;
53036;SDS011;38924;52.134;4.666;2023-10-09T10:26:35;22.73;;;14.00;;
53036;SDS011;38924;52.134;4.666;2023-10-09T10:29:17;17.83;;;14.85;;
53036;SDS011;38924;52.134;4.666;2023-10-09T10:34:20;18.20;;;14.23;;
53036;SDS011;38924;52.134;4.666;2023-10-09T10:36:49;16.00;;;14.43;;
53036;SDS011;38924;52.134;4.666;2023-10-09T10:39:18;16.15;;;13.02;;
53036;SDS011;38924;52.134;4.666;2023-10-09T10:41:56;24.30;;;16.75;;
53036;SDS011;38924;52.134;4.666;2023-10-09T10:44:27;17.77;;;15.32;;
53036;SDS011;38924;52.134;4.666;2023-10-09T10:47:03;18.30;;;16.33;;
53036;SDS011;38924;52.134;4.666;2023-10-09T10:49:30;15.88;;;12.73;;
53036;SDS011;38924;52.134;4.666;2023-10-09T10:52:06;16.02;;;13.65;;
53036;SDS011;38924;52.134;4.666;2023-10-09T10:54:43;16.63;;;13.55;;
53036;SDS011;38924;52.134;4.666;2023-10-09T10:57:18;15.77;;;12.52;;
53036;SDS011;38924;52.134;4.666;2023-10-09T10:59:57;15.38;;;11.98;;
53036;SDS011;38924;52.134;4.666;2023-10-09T11:02:41;17.00;;;11.77;;
53036;SDS011;38924;52.134;4.666;2023-10-09T11:05:07;19.33;;;13.50;;
53036;SDS011;38924;52.134;4.666;2023-10-09T11:07:56;19.07;;;10.93;;
53036;SDS011;38924;52.134;4.666;2023-10-09T11:10:22;18.85;;;13.38;;
53036;SDS011;38924;52.134;4.666;2023-10-09T11:12:56;23.15;;;15.73;;
53036;SDS011;38924;52.134;4.666;2023-10-09T11:15:35;16.65;;;13.82;;
53036;SDS011;38924;52.134;4.666;2023-10-09T11:18:10;17.90;;;12.60;;
53036;SDS011;38924;52.134;4.666;2023-10-09T11:20:52;23.15;;;16.40;;
53036;SDS011;38924;52.134;4.666;2023-10-09T11:23:44;23.38;;;13.20;;
53036;SDS011;38924;52.134;4.666;2023-10-09T11:26:16;21.55;;;15.23;;
53036;SDS011;38924;52.134;4.666;2023-10-09T11:29:09;20.27;;;13.55;;
53036;SDS011;38924;52.134;4.666;2023-10-09T11:31:57;19.67;;;12.13;;
53036;SDS011;38924;52.134;4.666;2023-10-09T11:34:25;18.23;;;14.98;;
53036;SDS011;38924;52.134;4.666;2023-10-09T11:37:12;16.60;;;13.15;;
53036;SDS011;38924;52.134;4.666;2023-10-09T11:39:38;22.02;;;11.93;;
53036;SDS011;38924;52.134;4.666;2023-10-09T11:42:19;15.10;;;13.52;;
53036;SDS011;38924;52.134;4.666;2023-10-09T11:45:20;21.02;;;11.65;;
53036;SDS011;38924;52.134;4.666;2023-10-09T11:47:47;19.38;;;11.25;;
53036;SDS011;38924;52.134;4.666;2023-10-09T11:53:09;17.67;;;12.43;;
53036;SDS011;38924;52.134;4.666;2023-10-09T11:55:51;19.83;;;14.55;;
53036;SDS011;38924;52.134;4.666;2023-10-09T11:58:20;21.67;;;14.75;;
53036;SDS011;38924;52.134;4.666;2023-10-09T12:03:25;19.38;;;13.27;;
53036;SDS011;38924;52.134;4.666;2023-10-09T12:05:54;21.50;;;12.65;;
53036;SDS011;38924;52.134;4.666;2023-10-09T12:08:22;15.38;;;12.38;;
53036;SDS011;38924;52.134;4.666;2023-10-09T12:10:52;20.73;;;13.20;;
53036;SDS011;38924;52.134;4.666;2023-10-09T12:13:21;22.38;;;11.77;;
53036;SDS011;38924;52.134;4.666;2023-10-09T12:15:48;22.05;;;13.25;;
53036;SDS011;38924;52.134;4.666;2023-10-09T12:18:14;23.92;;;14.70;;
53036;SDS011;38924;52.134;4.666;2023-10-09T12:20:43;20.55;;;13.05;;
53036;SDS011;38924;52.134;4.666;2023-10-09T12:23:20;22.98;;;12.57;;
53036;SDS011;38924;52.134;4.666;2023-10-09T12:25:47;14.98;;;10.73;;
53036;SDS011;38924;52.134;4.666;2023-10-09T12:28:13;21.42;;;13.88;;
53036;SDS011;38924;52.134;4.666;2023-10-09T12:30:39;19.30;;;13.52;;
53036;SDS011;38924;52.134;4.666;2023-10-09T12:33:06;17.73;;;12.15;;
53036;SDS011;38924;52.134;4.666;2023-10-09T12:35:36;19.27;;;11.50;;
53036;SDS011;38924;52.134;4.666;2023-10-09T12:38:02;14.10;;;10.60;;
53036;SDS011;38924;52.134;4.666;2023-10-09T12:40:28;24.00;;;13.50;;
53036;SDS011;38924;52.134;4.666;2023-10-09T12:42:57;37.15;;;14.02;;
53036;SDS011;38924;52.134;4.666;2023-10-09T12:45:26;19.52;;;13.02;;
53036;SDS011;38924;52.134;4.666;2023-10-09T12:47:55;23.50;;;14.57;;
53036;SDS011;38924;52.134;4.666;2023-10-09T12:50:37;16.77;;;10.20;;
53036;SDS011;38924;52.134;4.666;2023-10-09T12:53:12;13.68;;;10.02;;
53036;SDS011;38924;52.134;4.666;2023-10-09T12:55:43;23.40;;;14.18;;
53036;SDS011;38924;52.134;4.666;2023-10-09T12:58:09;20.15;;;14.70;;
53036;SDS011;38924;52.134;4.666;2023-10-09T13:00:37;18.10;;;11.30;;
53036;SDS011;38924;52.134;4.666;2023-10-09T13:03:09;21.42;;;13.73;;
53036;SDS011;38924;52.134;4.666;2023-10-09T13:08:19;18.15;;;10.65;;
53036;SDS011;38924;52.134;4.666;2023-10-09T13:10:47;16.92;;;12.25;;
53036;SDS011;38924;52.134;4.666;2023-10-09T13:13:20;18.05;;;11.95;;
53036;SDS011;38924;52.134;4.666;2023-10-09T13:15:49;19.60;;;14.27;;
53036;SDS011;38924;52.134;4.666;2023-10-09T13:18:18;34.45;;;14.07;;
53036;SDS011;38924;52.134;4.666;2023-10-09T13:20:44;23.30;;;13.63;;
53036;SDS011;38924;52.134;4.666;2023-10-09T13:23:11;16.58;;;11.07;;
53036;SDS011;38924;52.134;4.666;2023-10-09T13:25:40;15.70;;;12.07;;
53036;SDS011;38924;52.134;4.666;2023-10-09T13:28:06;21.77;;;13.38;;
53036;SDS011;38924;52.134;4.666;2023-10-09T13:30:31;18.70;;;11.35;;
53036;SDS011;38924;52.134;4.666;2023-10-09T13:33:04;22.98;;;12.23;;
53036;SDS011;38924;52.134;4.666;2023-10-09T13:35:31;18.58;;;12.05;;
53036;SDS011;38924;52.134;4.666;2023-10-09T13:38:03;15.55;;;10.38;;
53036;SDS011;38924;52.134;4.666;2023-10-09T13:40:33;17.67;;;11.73;;
53036;SDS011;38924;52.134;4.666;2023-10-09T13:43:00;15.38;;;12.90;;
53036;SDS011;38924;52.134;4.666;2023-10-09T13:45:26;15.73;;;12.60;;
53036;SDS011;38924;52.134;4.666;2023-10-09T13:47:53;19.80;;;12.73;;
53036;SDS011;38924;52.134;4.666;2023-10-09T13:50:20;19.45;;;12.77;;
53036;SDS011;38924;52.134;4.666;2023-10-09T13:52:47;17.48;;;11.57;;
53036;SDS011;38924;52.134;4.666;2023-10-09T13:55:13;18.77;;;11.52;;
53036;SDS011;38924;52.134;4.666;2023-10-09T13:57:45;17.30;;;11.38;;
53036;SDS011;38924;52.134;4.666;2023-10-09T14:00:14;17.90;;;11.95;;
53036;SDS011;38924;52.134;4.666;2023-10-09T14:02:44;13.18;;;9.75;;
53036;SDS011;38924;52.134;4.666;2023-10-09T14:05:14;15.30;;;10.90;;
53036;SDS011;38924;52.134;4.666;2023-10-09T14:07:39;22.00;;;11.77;;
53036;SDS011;38924;52.134;4.666;2023-10-09T14:10:06;21.10;;;13.07;;
53036;SDS011;38924;52.134;4.666;2023-10-09T14:12:43;22.50;;;12.10;;
53036;SDS011;38924;52.134;4.666;2023-10-09T14:15:09;24.17;;;11.15;;
53036;SDS011;38924;52.134;4.666;2023-10-09T14:17:42;21.90;;;12.18;;
53036;SDS011;38924;52.134;4.666;2023-10-09T14:20:08;26.10;;;12.23;;
53036;SDS011;38924;52.134;4.666;2023-10-09T14:22:56;17.65;;;9.90;;
53036;SDS011;38924;52.134;4.666;2023-10-09T14:25:21;18.65;;;10.68;;
53036;SDS011;38924;52.134;4.666;2023-10-09T14:27:47;18.70;;;13.27;;
53036;SDS011;38924;52.134;4.666;2023-10-09T14:30:18;23.10;;;12.07;;
53036;SDS011;38924;52.134;4.666;2023-10-09T14:32:56;20.60;;;11.75;;
53036;SDS011;38924;52.134;4.666;2023-10-09T14:35:22;17.02;;;12.50;;
53036;SDS011;38924;52.134;4.666;2023-10-09T14:37:52;20.75;;;11.88;;
53036;SDS011;38924;52.134;4.666;2023-10-09T14:40:19;17.00;;;12.18;;
53036;SDS011;38924;52.134;4.666;2023-10-09T14:42:55;26.33;;;11.10;;
53036;SDS011;38924;52.134;4.666;2023-10-09T14:45:26;17.70;;;12.55;;
53036;SDS011;38924;52.134;4.666;2023-10-09T14:47:52;16.73;;;10.77;;
53036;SDS011;38924;52.134;4.666;2023-10-09T14:50:22;24.60;;;14.00;;
53036;SDS011;38924;52.134;4.666;2023-10-09T14:52:48;16.67;;;13.75;;
53036;SDS011;38924;52.134;4.666;2023-10-09T14:55:16;22.20;;;14.35;;
53036;SDS011;38924;52.134;4.666;2023-10-09T14:57:52;24.40;;;12.52;;
53036;SDS011;38924;52.134;4.666;2023-10-09T15:00:17;20.70;;;12.82;;
53036;SDS011;38924;52.134;4.666;2023-10-09T15:02:51;20.67;;;14.18;;
53036;SDS011;38924;52.134;4.666;2023-10-09T15:05:17;20.52;;;13.07;;
53036;SDS011;38924;52.134;4.666;2023-10-09T15:07:43;24.60;;;12.88;;
53036;SDS011;38924;52.134;4.666;2023-10-09T15:10:11;18.40;;;12.57;;
53036;SDS011;38924;52.134;4.666;2023-10-09T15:12:41;21.25;;;11.63;;
53036;SDS011;38924;52.134;4.666;2023-10-09T15:15:08;24.90;;;13.23;;
53036;SDS011;38924;52.134;4.666;2023-10-09T15:17:39;21.95;;;11.90;;
53036;SDS011;38924;52.134;4.666;2023-10-09T15:20:11;19.60;;;13.25;;
53036;SDS011;38924;52.134;4.666;2023-10-09T15:22:42;21.08;;;11.32;;
53036;SDS011;38924;52.134;4.666;2023-10-09T15:25:08;18.23;;;12.40;;